sensor_id;sensor_type;location;lat;lon;timestamp;pressure;altitude;pressure_sealevel;temperature;humidity
70009;BME280;59542;37.950;-122.338;2023-04-12T00:02:16;101547.53;;;18.20;37.79
70009;BME280;59542;37.950;-122.338;2023-04-12T00:04:42;101546.72;;;18.20;37.39
70009;BME280;59542;37.950;-122.338;2023-04-12T00:07:09;101552.03;;;18.03;37.29
70009;BME280;59542;37.950;-122.338;2023-04-12T00:09:36;101554.91;;;17.85;37.68
70009;BME280;59542;37.950;-122.338;2023-04-12T00:12:04;101541.75;;;17.77;37.42
70009;BME280;59542;37.950;-122.338;2023-04-12T00:14:31;101540.28;;;17.98;38.03
70009;BME280;59542;37.950;-122.338;2023-04-12T00:16:58;101544.03;;;18.08;37.77
70009;BME280;59542;37.950;-122.338;2023-04-12T00:19:24;101543.22;;;17.96;37.40
70009;BME280;59542;37.950;-122.338;2023-04-12T00:21:55;101547.84;;;17.84;37.98
70009;BME280;59542;37.950;-122.338;2023-04-12T00:24:22;101535.22;;;17.42;39.49
70009;BME280;59542;37.950;-122.338;2023-04-12T00:26:49;101537.59;;;17.51;39.46
70009;BME280;59542;37.950;-122.338;2023-04-12T00:29:16;101545.72;;;17.74;39.58
70009;BME280;59542;37.950;-122.338;2023-04-12T00:31:42;101538.78;;;17.55;39.67
70009;BME280;59542;37.950;-122.338;2023-04-12T00:34:09;101535.56;;;17.34;38.99
70009;BME280;59542;37.950;-122.338;2023-04-12T00:36:35;101528.84;;;17.25;38.51
70009;BME280;59542;37.950;-122.338;2023-04-12T00:39:01;101537.63;;;16.97;38.74
70009;BME280;59542;37.950;-122.338;2023-04-12T00:41:27;101537.50;;;17.04;39.36
70009;BME280;59542;37.950;-122.338;2023-04-12T00:43:54;101551.66;;;16.76;39.76
70009;BME280;59542;37.950;-122.338;2023-04-12T00:46:20;101542.75;;;16.57;39.44
70009;BME280;59542;37.950;-122.338;2023-04-12T00:48:46;101550.88;;;16.39;41.00
70009;BME280;59542;37.950;-122.338;2023-04-12T00:51:13;101539.72;;;15.98;41.54
70009;BME280;59542;37.950;-122.338;2023-04-12T00:53:39;101547.72;;;15.87;41.89
70009;BME280;59542;37.950;-122.338;2023-04-12T00:56:06;101542.88;;;15.95;42.91
70009;BME280;59542;37.950;-122.338;2023-04-12T00:58:36;101543.84;;;16.01;42.99
70009;BME280;59542;37.950;-122.338;2023-04-12T01:01:02;101550.00;;;16.08;42.89
70009;BME280;59542;37.950;-122.338;2023-04-12T01:03:29;101553.91;;;15.94;41.16
70009;BME280;59542;37.950;-122.338;2023-04-12T01:06:49;101564.41;;;16.02;41.56
70009;BME280;59542;37.950;-122.338;2023-04-12T01:09:19;101554.25;;;15.79;42.64
70009;BME280;59542;37.950;-122.338;2023-04-12T01:17:17;101554.50;;;15.96;43.02
70009;BME280;59542;37.950;-122.338;2023-04-12T01:19:59;101555.75;;;15.75;44.13
70009;BME280;59542;37.950;-122.338;2023-04-12T01:28:10;101558.78;;;15.35;43.96
70009;BME280;59542;37.950;-122.338;2023-04-12T01:30:37;101564.44;;;15.27;43.74
70009;BME280;59542;37.950;-122.338;2023-04-12T01:33:05;101559.81;;;15.34;43.83
70009;BME280;59542;37.950;-122.338;2023-04-12T01:35:36;101549.78;;;15.41;43.69
70009;BME280;59542;37.950;-122.338;2023-04-12T01:38:04;101549.91;;;15.28;43.22
70009;BME280;59542;37.950;-122.338;2023-04-12T01:40:32;101559.38;;;15.12;43.26
70009;BME280;59542;37.950;-122.338;2023-04-12T01:43:11;101551.06;;;15.14;44.80
70009;BME280;59542;37.950;-122.338;2023-04-12T01:45:38;101555.97;;;15.23;43.79
70009;BME280;59542;37.950;-122.338;2023-04-12T01:48:07;101557.53;;;15.06;44.66
70009;BME280;59542;37.950;-122.338;2023-04-12T01:54:05;101565.53;;;14.88;44.08
70009;BME280;59542;37.950;-122.338;2023-04-12T01:56:39;101564.00;;;14.67;44.26
70009;BME280;59542;37.950;-122.338;2023-04-12T01:59:07;101559.03;;;14.64;44.91
70009;BME280;59542;37.950;-122.338;2023-04-12T02:01:34;101561.31;;;14.67;45.88
70009;BME280;59542;37.950;-122.338;2023-04-12T02:04:02;101560.69;;;14.65;46.13
70009;BME280;59542;37.950;-122.338;2023-04-12T02:06:30;101560.44;;;14.73;45.78
70009;BME280;59542;37.950;-122.338;2023-04-12T02:09:02;101561.72;;;14.64;45.62
70009;BME280;59542;37.950;-122.338;2023-04-12T02:11:33;101560.81;;;14.83;45.72
70009;BME280;59542;37.950;-122.338;2023-04-12T02:13:59;101564.78;;;14.74;45.62
70009;BME280;59542;37.950;-122.338;2023-04-12T02:16:26;101555.19;;;14.40;46.80
70009;BME280;59542;37.950;-122.338;2023-04-12T02:18:54;101563.78;;;14.17;47.48
70009;BME280;59542;37.950;-122.338;2023-04-12T02:21:22;101558.03;;;14.00;47.12
70009;BME280;59542;37.950;-122.338;2023-04-12T02:23:48;101553.50;;;13.81;47.96
70009;BME280;59542;37.950;-122.338;2023-04-12T02:26:15;101561.56;;;13.94;47.84
70009;BME280;59542;37.950;-122.338;2023-04-12T02:28:43;101550.19;;;13.79;47.93
70009;BME280;59542;37.950;-122.338;2023-04-12T02:31:09;101549.13;;;13.86;48.17
70009;BME280;59542;37.950;-122.338;2023-04-12T02:33:36;101548.50;;;13.91;48.50
70009;BME280;59542;37.950;-122.338;2023-04-12T02:36:03;101545.03;;;13.77;48.66
70009;BME280;59542;37.950;-122.338;2023-04-12T02:38:29;101543.16;;;13.64;49.25
70009;BME280;59542;37.950;-122.338;2023-04-12T02:40:56;101542.97;;;13.53;49.40
70009;BME280;59542;37.950;-122.338;2023-04-12T02:43:22;101542.75;;;13.54;48.64
70009;BME280;59542;37.950;-122.338;2023-04-12T02:45:48;101545.28;;;13.23;49.92
70009;BME280;59542;37.950;-122.338;2023-04-12T02:48:15;101545.47;;;13.21;50.03
70009;BME280;59542;37.950;-122.338;2023-04-12T02:50:41;101553.31;;;13.16;50.30
70009;BME280;59542;37.950;-122.338;2023-04-12T02:53:07;101546.66;;;12.99;50.70
70009;BME280;59542;37.950;-122.338;2023-04-12T02:55:33;101547.69;;;12.91;51.12
70009;BME280;59542;37.950;-122.338;2023-04-12T02:58:01;101551.41;;;12.83;51.37
70009;BME280;59542;37.950;-122.338;2023-04-12T03:00:27;101543.50;;;12.82;51.22
70009;BME280;59542;37.950;-122.338;2023-04-12T03:02:53;101545.34;;;12.68;51.93
70009;BME280;59542;37.950;-122.338;2023-04-12T03:05:20;101542.06;;;12.66;52.28
70009;BME280;59542;37.950;-122.338;2023-04-12T03:07:46;101547.16;;;12.48;52.47
70009;BME280;59542;37.950;-122.338;2023-04-12T03:10:13;101546.94;;;12.49;52.48
70009;BME280;59542;37.950;-122.338;2023-04-12T03:12:40;101549.59;;;12.42;52.75
70009;BME280;59542;37.950;-122.338;2023-04-12T03:15:07;101556.13;;;12.27;53.24
70009;BME280;59542;37.950;-122.338;2023-04-12T03:17:33;101549.56;;;12.29;53.22
70009;BME280;59542;37.950;-122.338;2023-04-12T03:20:04;101560.75;;;12.33;53.32
70009;BME280;59542;37.950;-122.338;2023-04-12T03:22:37;101550.38;;;12.30;53.25
70009;BME280;59542;37.950;-122.338;2023-04-12T03:25:04;101549.72;;;12.21;53.28
70009;BME280;59542;37.950;-122.338;2023-04-12T03:27:30;101556.13;;;12.20;53.24
70009;BME280;59542;37.950;-122.338;2023-04-12T03:29:57;101553.63;;;12.19;53.26
70009;BME280;59542;37.950;-122.338;2023-04-12T03:32:23;101557.56;;;12.16;53.62
70009;BME280;59542;37.950;-122.338;2023-04-12T03:34:50;101561.66;;;12.12;54.06
70009;BME280;59542;37.950;-122.338;2023-04-12T03:37:16;101555.22;;;12.06;54.01
70009;BME280;59542;37.950;-122.338;2023-04-12T03:39:42;101560.09;;;11.89;54.84
70009;BME280;59542;37.950;-122.338;2023-04-12T03:42:13;101567.09;;;11.91;55.12
70009;BME280;59542;37.950;-122.338;2023-04-12T03:44:40;101567.25;;;11.82;55.57
70009;BME280;59542;37.950;-122.338;2023-04-12T03:47:06;101570.56;;;11.84;55.63
70009;BME280;59542;37.950;-122.338;2023-04-12T03:49:32;101571.06;;;11.95;55.14
70009;BME280;59542;37.950;-122.338;2023-04-12T03:51:59;101571.31;;;12.00;54.91
70009;BME280;59542;37.950;-122.338;2023-04-12T03:54:25;101582.22;;;11.77;55.86
70009;BME280;59542;37.950;-122.338;2023-04-12T03:56:51;101576.25;;;11.75;55.73
70009;BME280;59542;37.950;-122.338;2023-04-12T03:59:18;101582.22;;;11.77;55.90
70009;BME280;59542;37.950;-122.338;2023-04-12T04:01:44;101589.75;;;11.60;56.64
70009;BME280;59542;37.950;-122.338;2023-04-12T04:04:10;101588.28;;;11.57;56.84
70009;BME280;59542;37.950;-122.338;2023-04-12T04:06:37;101580.94;;;11.66;56.52
70009;BME280;59542;37.950;-122.338;2023-04-12T04:09:03;101592.22;;;11.55;57.50
70009;BME280;59542;37.950;-122.338;2023-04-12T04:11:30;101595.59;;;11.42;58.05
70009;BME280;59542;37.950;-122.338;2023-04-12T04:13:56;101587.84;;;11.32;58.54
70009;BME280;59542;37.950;-122.338;2023-04-12T04:16:23;101597.59;;;11.33;58.37
70009;BME280;59542;37.950;-122.338;2023-04-12T04:18:49;101594.41;;;11.23;59.25
70009;BME280;59542;37.950;-122.338;2023-04-12T04:21:15;101595.91;;;11.32;59.26
70009;BME280;59542;37.950;-122.338;2023-04-12T04:23:41;101599.59;;;11.31;59.28
70009;BME280;59542;37.950;-122.338;2023-04-12T04:26:12;101588.13;;;11.37;58.97
70009;BME280;59542;37.950;-122.338;2023-04-12T04:28:41;101595.53;;;11.35;59.23
70009;BME280;59542;37.950;-122.338;2023-04-12T04:31:11;101600.25;;;11.33;59.76
70009;BME280;59542;37.950;-122.338;2023-04-12T04:33:38;101598.34;;;11.27;60.10
70009;BME280;59542;37.950;-122.338;2023-04-12T04:36:05;101602.75;;;11.14;60.43
70009;BME280;59542;37.950;-122.338;2023-04-12T04:38:35;101593.72;;;11.21;60.25
70009;BME280;59542;37.950;-122.338;2023-04-12T04:41:01;101602.81;;;11.20;60.21
70009;BME280;59542;37.950;-122.338;2023-04-12T04:43:28;101601.16;;;11.19;60.15
70009;BME280;59542;37.950;-122.338;2023-04-12T04:45:59;101603.50;;;11.07;60.54
70009;BME280;59542;37.950;-122.338;2023-04-12T04:48:25;101606.06;;;10.94;61.57
70009;BME280;59542;37.950;-122.338;2023-04-12T04:50:52;101608.63;;;10.88;61.45
70009;BME280;59542;37.950;-122.338;2023-04-12T04:53:20;101604.84;;;10.97;61.28
70009;BME280;59542;37.950;-122.338;2023-04-12T04:55:47;101608.59;;;11.02;60.95
70009;BME280;59542;37.950;-122.338;2023-04-12T04:58:14;101609.63;;;11.01;60.88
70009;BME280;59542;37.950;-122.338;2023-04-12T05:00:41;101612.88;;;10.97;61.40
70009;BME280;59542;37.950;-122.338;2023-04-12T05:03:09;101610.13;;;10.90;61.81
70009;BME280;59542;37.950;-122.338;2023-04-12T05:05:37;101605.69;;;10.82;62.50
70009;BME280;59542;37.950;-122.338;2023-04-12T05:08:03;101606.78;;;10.88;62.21
70009;BME280;59542;37.950;-122.338;2023-04-12T05:10:30;101611.31;;;10.88;62.08
70009;BME280;59542;37.950;-122.338;2023-04-12T05:12:56;101603.16;;;10.74;62.43
70009;BME280;59542;37.950;-122.338;2023-04-12T05:15:22;101606.84;;;10.73;62.49
70009;BME280;59542;37.950;-122.338;2023-04-12T05:17:49;101598.69;;;10.81;61.71
70009;BME280;59542;37.950;-122.338;2023-04-12T05:20:15;101600.09;;;10.77;62.42
70009;BME280;59542;37.950;-122.338;2023-04-12T05:22:41;101601.63;;;10.87;61.42
70009;BME280;59542;37.950;-122.338;2023-04-12T05:25:08;101601.38;;;10.81;61.98
70009;BME280;59542;37.950;-122.338;2023-04-12T05:27:35;101611.97;;;10.90;61.47
70009;BME280;59542;37.950;-122.338;2023-04-12T05:30:01;101602.19;;;10.82;62.17
70009;BME280;59542;37.950;-122.338;2023-04-12T05:32:27;101595.88;;;10.68;62.42
70009;BME280;59542;37.950;-122.338;2023-04-12T05:34:54;101606.50;;;10.62;62.89
70009;BME280;59542;37.950;-122.338;2023-04-12T05:37:20;101610.56;;;10.72;62.67
70009;BME280;59542;37.950;-122.338;2023-04-12T05:39:47;101596.50;;;10.70;62.66
70009;BME280;59542;37.950;-122.338;2023-04-12T05:42:13;101603.81;;;10.62;62.61
70009;BME280;59542;37.950;-122.338;2023-04-12T05:44:39;101607.97;;;10.64;62.71
70009;BME280;59542;37.950;-122.338;2023-04-12T05:47:06;101606.59;;;10.53;63.01
70009;BME280;59542;37.950;-122.338;2023-04-12T05:49:32;101605.00;;;10.59;62.77
70009;BME280;59542;37.950;-122.338;2023-04-12T05:51:58;101602.06;;;10.54;62.81
70009;BME280;59542;37.950;-122.338;2023-04-12T05:54:25;101608.25;;;10.54;62.72
70009;BME280;59542;37.950;-122.338;2023-04-12T05:56:51;101606.78;;;10.52;63.09
70009;BME280;59542;37.950;-122.338;2023-04-12T05:59:20;101602.72;;;10.56;62.42
70009;BME280;59542;37.950;-122.338;2023-04-12T06:01:47;101600.81;;;10.50;62.95
70009;BME280;59542;37.950;-122.338;2023-04-12T06:04:13;101606.25;;;10.56;62.78
70009;BME280;59542;37.950;-122.338;2023-04-12T06:06:40;101599.66;;;10.59;62.20
70009;BME280;59542;37.950;-122.338;2023-04-12T06:09:09;101604.66;;;10.62;62.43
70009;BME280;59542;37.950;-122.338;2023-04-12T06:11:35;101604.25;;;10.65;61.58
70009;BME280;59542;37.950;-122.338;2023-04-12T06:14:03;101601.16;;;10.62;62.10
70009;BME280;59542;37.950;-122.338;2023-04-12T06:16:30;101604.84;;;10.61;61.88
70009;BME280;59542;37.950;-122.338;2023-04-12T06:18:56;101601.59;;;10.65;61.45
70009;BME280;59542;37.950;-122.338;2023-04-12T06:21:23;101593.75;;;10.49;61.82
70009;BME280;59542;37.950;-122.338;2023-04-12T06:23:50;101586.66;;;10.56;61.82
70009;BME280;59542;37.950;-122.338;2023-04-12T06:26:16;101584.91;;;10.63;60.71
70009;BME280;59542;37.950;-122.338;2023-04-12T06:28:42;101578.19;;;10.38;62.11
70009;BME280;59542;37.950;-122.338;2023-04-12T06:31:09;101575.75;;;10.57;61.30
70009;BME280;59542;37.950;-122.338;2023-04-12T06:33:35;101582.53;;;10.39;61.28
70009;BME280;59542;37.950;-122.338;2023-04-12T06:36:02;101580.66;;;10.54;60.44
70009;BME280;59542;37.950;-122.338;2023-04-12T06:38:28;101581.13;;;10.43;60.76
70009;BME280;59542;37.950;-122.338;2023-04-12T06:40:54;101579.22;;;10.37;60.73
70009;BME280;59542;37.950;-122.338;2023-04-12T06:43:20;101575.34;;;10.39;60.43
70009;BME280;59542;37.950;-122.338;2023-04-12T06:45:47;101579.13;;;10.45;60.23
70009;BME280;59542;37.950;-122.338;2023-04-12T06:48:17;101579.28;;;10.58;60.24
70009;BME280;59542;37.950;-122.338;2023-04-12T06:50:44;101580.16;;;10.44;60.93
70009;BME280;59542;37.950;-122.338;2023-04-12T06:53:10;101582.34;;;10.55;60.63
70009;BME280;59542;37.950;-122.338;2023-04-12T06:55:38;101577.72;;;10.49;60.40
70009;BME280;59542;37.950;-122.338;2023-04-12T06:58:04;101579.38;;;10.50;60.15
70009;BME280;59542;37.950;-122.338;2023-04-12T07:00:31;101585.84;;;10.41;59.96
70009;BME280;59542;37.950;-122.338;2023-04-12T07:02:57;101577.16;;;10.53;59.51
70009;BME280;59542;37.950;-122.338;2023-04-12T07:05:23;101560.38;;;10.45;59.85
70009;BME280;59542;37.950;-122.338;2023-04-12T07:07:49;101572.63;;;10.54;59.06
70009;BME280;59542;37.950;-122.338;2023-04-12T07:10:16;101572.13;;;10.44;59.17
70009;BME280;59542;37.950;-122.338;2023-04-12T07:12:42;101572.56;;;10.32;59.32
70009;BME280;59542;37.950;-122.338;2023-04-12T07:15:08;101574.88;;;10.36;58.81
70009;BME280;59542;37.950;-122.338;2023-04-12T07:17:35;101569.72;;;10.34;58.79
70009;BME280;59542;37.950;-122.338;2023-04-12T07:20:01;101567.47;;;10.23;59.14
70009;BME280;59542;37.950;-122.338;2023-04-12T07:22:27;101566.78;;;10.29;58.41
70009;BME280;59542;37.950;-122.338;2023-04-12T07:24:53;101567.84;;;10.20;58.63
70009;BME280;59542;37.950;-122.338;2023-04-12T07:27:20;101562.81;;;10.25;58.46
70009;BME280;59542;37.950;-122.338;2023-04-12T07:29:46;101560.75;;;10.27;58.05
70009;BME280;59542;37.950;-122.338;2023-04-12T07:32:12;101561.63;;;10.27;58.02
70009;BME280;59542;37.950;-122.338;2023-04-12T07:34:39;101559.28;;;10.24;58.13
70009;BME280;59542;37.950;-122.338;2023-04-12T07:37:05;101561.84;;;10.03;58.30
70009;BME280;59542;37.950;-122.338;2023-04-12T07:39:31;101563.50;;;10.19;57.60
70009;BME280;59542;37.950;-122.338;2023-04-12T07:41:59;101558.53;;;10.16;57.75
70009;BME280;59542;37.950;-122.338;2023-04-12T07:44:26;101561.78;;;10.26;57.37
70009;BME280;59542;37.950;-122.338;2023-04-12T07:46:52;101565.56;;;10.17;57.46
70009;BME280;59542;37.950;-122.338;2023-04-12T07:49:18;101560.13;;;10.25;56.72
70009;BME280;59542;37.950;-122.338;2023-04-12T07:51:44;101565.09;;;10.13;57.27
70009;BME280;59542;37.950;-122.338;2023-04-12T07:54:11;101571.47;;;10.12;57.34
70009;BME280;59542;37.950;-122.338;2023-04-12T07:56:37;101562.78;;;10.10;57.23
70009;BME280;59542;37.950;-122.338;2023-04-12T07:59:04;101564.72;;;10.16;56.93
70009;BME280;59542;37.950;-122.338;2023-04-12T08:01:31;101560.66;;;10.05;56.96
70009;BME280;59542;37.950;-122.338;2023-04-12T08:03:57;101554.56;;;9.97;57.50
70009;BME280;59542;37.950;-122.338;2023-04-12T08:06:23;101553.28;;;10.08;57.22
70009;BME280;59542;37.950;-122.338;2023-04-12T08:08:51;101553.13;;;9.94;57.38
70009;BME280;59542;37.950;-122.338;2023-04-12T08:11:17;101546.66;;;9.89;57.54
70009;BME280;59542;37.950;-122.338;2023-04-12T08:13:43;101544.50;;;9.99;57.41
70009;BME280;59542;37.950;-122.338;2023-04-12T08:16:09;101552.19;;;10.02;56.94
70009;BME280;59542;37.950;-122.338;2023-04-12T08:18:37;101543.97;;;9.89;57.13
70009;BME280;59542;37.950;-122.338;2023-04-12T08:21:03;101547.00;;;9.86;57.56
70009;BME280;59542;37.950;-122.338;2023-04-12T08:23:30;101537.69;;;9.96;57.26
70009;BME280;59542;37.950;-122.338;2023-04-12T08:25:56;101534.00;;;9.97;57.28
70009;BME280;59542;37.950;-122.338;2023-04-12T08:28:28;101544.69;;;9.83;57.85
70009;BME280;59542;37.950;-122.338;2023-04-12T08:30:54;101531.34;;;9.68;58.68
70009;BME280;59542;37.950;-122.338;2023-04-12T08:33:20;101538.16;;;9.70;58.33
70009;BME280;59542;37.950;-122.338;2023-04-12T08:35:47;101532.34;;;9.67;58.54
70009;BME280;59542;37.950;-122.338;2023-04-12T08:38:13;101525.59;;;9.71;58.36
70009;BME280;59542;37.950;-122.338;2023-04-12T08:40:41;101525.06;;;9.61;58.39
70009;BME280;59542;37.950;-122.338;2023-04-12T08:43:10;101526.22;;;9.43;59.19
70009;BME280;59542;37.950;-122.338;2023-04-12T08:45:37;101525.09;;;9.38;59.62
70009;BME280;59542;37.950;-122.338;2023-04-12T08:48:04;101523.09;;;9.40;59.91
70009;BME280;59542;37.950;-122.338;2023-04-12T08:50:31;101523.38;;;9.45;60.00
70009;BME280;59542;37.950;-122.338;2023-04-12T08:52:58;101518.31;;;9.50;59.76
70009;BME280;59542;37.950;-122.338;2023-04-12T08:55:25;101515.81;;;9.48;59.90
70009;BME280;59542;37.950;-122.338;2023-04-12T08:57:53;101518.19;;;9.43;60.34
70009;BME280;59542;37.950;-122.338;2023-04-12T09:00:21;101523.00;;;9.48;60.36
70009;BME280;59542;37.950;-122.338;2023-04-12T09:02:47;101511.72;;;9.61;60.25
70009;BME280;59542;37.950;-122.338;2023-04-12T09:05:14;101509.28;;;9.51;60.51
70009;BME280;59542;37.950;-122.338;2023-04-12T09:07:41;101511.59;;;9.54;61.13
70009;BME280;59542;37.950;-122.338;2023-04-12T09:10:08;101494.28;;;9.50;61.20
70009;BME280;59542;37.950;-122.338;2023-04-12T09:12:34;101495.16;;;9.42;61.95
70009;BME280;59542;37.950;-122.338;2023-04-12T09:15:10;101485.22;;;9.36;62.28
70009;BME280;59542;37.950;-122.338;2023-04-12T09:17:41;101484.19;;;9.22;62.46
70009;BME280;59542;37.950;-122.338;2023-04-12T09:22:43;101485.38;;;9.20;62.91
70009;BME280;59542;37.950;-122.338;2023-04-12T09:25:11;101478.06;;;9.14;63.21
70009;BME280;59542;37.950;-122.338;2023-04-12T09:27:51;101475.78;;;9.25;63.10
70009;BME280;59542;37.950;-122.338;2023-04-12T09:30:23;101473.22;;;9.17;63.34
70009;BME280;59542;37.950;-122.338;2023-04-12T09:32:50;101477.84;;;9.23;62.63
70009;BME280;59542;37.950;-122.338;2023-04-12T09:35:18;101466.19;;;9.02;63.35
70009;BME280;59542;37.950;-122.338;2023-04-12T09:37:44;101466.19;;;9.02;63.61
70009;BME280;59542;37.950;-122.338;2023-04-12T09:40:10;101456.84;;;8.97;63.76
70009;BME280;59542;37.950;-122.338;2023-04-12T09:42:57;101453.47;;;9.04;63.29
70009;BME280;59542;37.950;-122.338;2023-04-12T09:45:24;101457.69;;;8.98;63.67
70009;BME280;59542;37.950;-122.338;2023-04-12T09:47:53;101452.44;;;9.05;63.45
70009;BME280;59542;37.950;-122.338;2023-04-12T09:50:24;101450.97;;;9.02;63.52
70009;BME280;59542;37.950;-122.338;2023-04-12T09:52:52;101446.66;;;9.01;63.68
70009;BME280;59542;37.950;-122.338;2023-04-12T09:55:24;101445.84;;;9.01;63.56
70009;BME280;59542;37.950;-122.338;2023-04-12T09:57:51;101441.84;;;8.96;63.80
70009;BME280;59542;37.950;-122.338;2023-04-12T10:00:22;101452.34;;;8.98;63.51
70009;BME280;59542;37.950;-122.338;2023-04-12T10:02:51;101446.00;;;8.99;62.96
70009;BME280;59542;37.950;-122.338;2023-04-12T10:05:19;101440.59;;;9.07;63.00
70009;BME280;59542;37.950;-122.338;2023-04-12T10:07:46;101441.97;;;9.03;62.97
70009;BME280;59542;37.950;-122.338;2023-04-12T10:10:15;101430.84;;;9.14;62.16
70009;BME280;59542;37.950;-122.338;2023-04-12T10:12:43;101432.31;;;9.17;62.24
70009;BME280;59542;37.950;-122.338;2023-04-12T10:15:10;101423.31;;;9.18;62.15
70009;BME280;59542;37.950;-122.338;2023-04-12T10:17:43;101428.53;;;9.11;62.12
70009;BME280;59542;37.950;-122.338;2023-04-12T10:20:11;101429.91;;;9.07;62.49
70009;BME280;59542;37.950;-122.338;2023-04-12T10:22:45;101415.19;;;9.11;61.90
70009;BME280;59542;37.950;-122.338;2023-04-12T10:25:14;101423.50;;;9.16;61.91
70009;BME280;59542;37.950;-122.338;2023-04-12T10:27:42;101425.31;;;9.16;62.34
70009;BME280;59542;37.950;-122.338;2023-04-12T10:30:25;101425.97;;;9.33;61.84
70009;BME280;59542;37.950;-122.338;2023-04-12T10:36:00;101412.34;;;9.28;62.31
70009;BME280;59542;37.950;-122.338;2023-04-12T10:39:08;101411.78;;;9.17;62.73
70009;BME280;59542;37.950;-122.338;2023-04-12T10:42:14;101414.28;;;9.19;62.88
70009;BME280;59542;37.950;-122.338;2023-04-12T10:44:40;101410.84;;;9.10;62.47
70009;BME280;59542;37.950;-122.338;2023-04-12T10:47:07;101406.69;;;9.08;62.24
70009;BME280;59542;37.950;-122.338;2023-04-12T10:49:34;101409.56;;;9.06;62.36
70009;BME280;59542;37.950;-122.338;2023-04-12T10:54:31;101415.53;;;9.08;61.93
70009;BME280;59542;37.950;-122.338;2023-04-12T10:57:00;101413.59;;;9.02;62.00
70009;BME280;59542;37.950;-122.338;2023-04-12T10:59:50;101408.59;;;8.99;61.87
70009;BME280;59542;37.950;-122.338;2023-04-12T11:02:17;101407.41;;;8.87;62.08
70009;BME280;59542;37.950;-122.338;2023-04-12T11:05:08;101410.88;;;8.87;62.15
70009;BME280;59542;37.950;-122.338;2023-04-12T11:07:42;101412.00;;;8.93;61.89
70009;BME280;59542;37.950;-122.338;2023-04-12T11:10:15;101403.41;;;8.83;62.27
70009;BME280;59542;37.950;-122.338;2023-04-12T11:12:51;101404.91;;;8.85;62.10
70009;BME280;59542;37.950;-122.338;2023-04-12T11:15:25;101400.69;;;8.91;61.83
70009;BME280;59542;37.950;-122.338;2023-04-12T11:17:53;101396.00;;;8.93;61.73
70009;BME280;59542;37.950;-122.338;2023-04-12T11:20:20;101398.69;;;8.70;62.64
70009;BME280;59542;37.950;-122.338;2023-04-12T11:22:48;101394.78;;;8.81;62.10
70009;BME280;59542;37.950;-122.338;2023-04-12T11:25:16;101401.66;;;8.75;62.26
70009;BME280;59542;37.950;-122.338;2023-04-12T11:27:49;101393.75;;;8.67;62.58
70009;BME280;59542;37.950;-122.338;2023-04-12T11:30:16;101399.38;;;8.72;62.10
70009;BME280;59542;37.950;-122.338;2023-04-12T11:32:44;101393.50;;;8.54;64.04
70009;BME280;59542;37.950;-122.338;2023-04-12T11:35:10;101399.44;;;8.33;64.44
70009;BME280;59542;37.950;-122.338;2023-04-12T11:37:37;101394.09;;;8.41;63.88
70009;BME280;59542;37.950;-122.338;2023-04-12T11:40:04;101402.78;;;8.35;63.96
70009;BME280;59542;37.950;-122.338;2023-04-12T11:42:31;101396.19;;;8.00;65.50
70009;BME280;59542;37.950;-122.338;2023-04-12T11:44:58;101402.09;;;8.10;65.06
70009;BME280;59542;37.950;-122.338;2023-04-12T11:47:25;101400.13;;;8.04;65.40
70009;BME280;59542;37.950;-122.338;2023-04-12T11:49:53;101397.34;;;7.97;65.65
70009;BME280;59542;37.950;-122.338;2023-04-12T11:52:22;101397.25;;;8.13;64.84
70009;BME280;59542;37.950;-122.338;2023-04-12T11:54:52;101391.63;;;8.08;64.96
70009;BME280;59542;37.950;-122.338;2023-04-12T11:57:21;101394.41;;;8.15;64.48
70009;BME280;59542;37.950;-122.338;2023-04-12T11:59:48;101392.94;;;8.12;64.41
70009;BME280;59542;37.950;-122.338;2023-04-12T12:02:16;101385.28;;;8.09;63.76
70009;BME280;59542;37.950;-122.338;2023-04-12T12:04:47;101387.38;;;8.22;64.04
70009;BME280;59542;37.950;-122.338;2023-04-12T12:07:16;101382.31;;;8.04;64.24
70009;BME280;59542;37.950;-122.338;2023-04-12T12:09:44;101385.66;;;8.06;63.70
70009;BME280;59542;37.950;-122.338;2023-04-12T12:12:12;101379.91;;;8.17;63.22
70009;BME280;59542;37.950;-122.338;2023-04-12T12:14:39;101397.09;;;7.84;64.70
70009;BME280;59542;37.950;-122.338;2023-04-12T12:17:10;101393.44;;;7.85;64.84
70009;BME280;59542;37.950;-122.338;2023-04-12T12:19:43;101388.66;;;8.03;64.23
70009;BME280;59542;37.950;-122.338;2023-04-12T12:22:17;101386.97;;;7.79;64.91
70009;BME280;59542;37.950;-122.338;2023-04-12T12:24:53;101394.84;;;7.64;66.11
70009;BME280;59542;37.950;-122.338;2023-04-12T12:27:32;101401.38;;;7.62;65.77
70009;BME280;59542;37.950;-122.338;2023-04-12T12:30:00;101396.56;;;7.49;65.99
70009;BME280;59542;37.950;-122.338;2023-04-12T12:32:33;101400.69;;;7.12;67.63
70009;BME280;59542;37.950;-122.338;2023-04-12T12:35:06;101403.94;;;7.39;66.43
70009;BME280;59542;37.950;-122.338;2023-04-12T12:37:34;101407.16;;;7.18;66.96
70009;BME280;59542;37.950;-122.338;2023-04-12T12:40:10;101403.22;;;6.73;68.73
70009;BME280;59542;37.950;-122.338;2023-04-12T12:45:16;101406.38;;;6.85;69.29
70009;BME280;59542;37.950;-122.338;2023-04-12T12:47:53;101407.22;;;6.61;69.66
70009;BME280;59542;37.950;-122.338;2023-04-12T12:50:22;101408.03;;;6.86;68.48
70009;BME280;59542;37.950;-122.338;2023-04-12T12:52:52;101400.19;;;6.93;67.95
70009;BME280;59542;37.950;-122.338;2023-04-12T12:55:20;101405.19;;;6.96;67.20